Time;durP1;ratioP1;P1;durP2;ratioP2;P2;SDS_P1;SDS_P2;PMS_P1;PMS_P2;Temp;Humidity;BMP_temperature;BMP_pressure;BME280_temperature;BME280_humidity;BME280_pressure;Samples;Min_cycle;Max_cycle;Signal;HPM_P1;HPM_P2
2023/09/25 00:01:43;;;;;;;4.00;3.50;;;;;;;-128.00;-1.00;-1.00;101031;316;1003512;-30
2023/09/25 00:04:08;;;;;;;5.60;4.90;;;;;;;-128.00;-1.00;-1.00;100770;320;1003154;-36
2023/09/25 00:06:34;;;;;;;6.20;4.00;;;;;;;-128.00;-1.00;-1.00;101006;316;1003560;-32
2023/09/25 00:09:00;;;;;;;3.80;3.30;;;;;;;-128.00;-1.00;-1.00;101046;316;1003723;-35
2023/09/25 00:11:25;;;;;;;5.20;4.70;;;;;;;-128.00;-1.00;-1.00;100984;316;1003000;-30
2023/09/25 00:13:51;;;;;;;9.40;7.20;;;;;;;-128.00;-1.00;-1.00;100992;316;1003589;-34
2023/09/25 00:16:16;;;;;;;6.30;4.80;;;;;;;-128.00;-1.00;-1.00;100993;316;1002856;-36
2023/09/25 00:18:42;;;;;;;7.10;5.20;;;;;;;-128.00;-1.00;-1.00;100773;318;1003565;-31
2023/09/25 00:21:08;;;;;;;5.80;5.20;;;;;;;-128.00;-1.00;-1.00;101011;316;1003576;-33
2023/09/25 00:23:35;;;;;;;5.30;4.30;;;;;;;-128.00;-1.00;-1.00;101092;316;1002969;-35
2023/09/25 00:26:02;;;;;;;7.20;6.10;;;;;;;-128.00;-1.00;-1.00;101030;316;1003685;-31
2023/09/25 00:28:28;;;;;;;4.90;4.30;;;;;;;-128.00;-1.00;-1.00;100990;316;1003053;-30
2023/09/25 00:30:55;;;;;;;4.90;3.90;;;;;;;-128.00;-1.00;-1.00;20203;322;7504609;-35
2023/09/25 00:33:21;;;;;;;10.00;4.30;;;;;;;-128.00;-1.00;-1.00;19058;316;7505304;-35
2023/09/25 00:35:48;;;;;;;6.00;5.30;;;;;;;-128.00;-1.00;-1.00;19484;316;7505057;-33
2023/09/25 01:17:25;;;;;;;6.60;4.20;;;;;;;-99.96;19.20;20108.07;101415;317;1574727;-34
2023/09/25 01:19:51;;;;;;;8.10;5.40;;;;;;;-128.00;-1.00;-1.00;100485;316;1003057;-35
2023/09/25 01:22:17;;;;;;;9.00;7.20;;;;;;;-128.00;-1.00;-1.00;100694;317;1003873;-35
2023/09/25 01:24:45;;;;;;;6.50;4.90;;;;;;;-128.00;-1.00;-1.00;54832;317;7504475;-31
2023/09/25 01:27:11;;;;;;;6.30;5.70;;;;;;;-128.00;-1.00;-1.00;19463;323;7504471;-34
2023/09/25 01:29:37;;;;;;;6.50;5.10;;;;;;;-128.00;-1.00;-1.00;19455;323;7505069;-30
2023/09/25 01:32:04;;;;;;;5.30;4.80;;;;;;;-128.00;-1.00;-1.00;19421;322;7506105;-31
2023/09/25 01:34:31;;;;;;;3.90;3.50;;;;;;;-128.00;-1.00;-1.00;79582;317;7503943;-33
2023/09/25 01:36:58;;;;;;;6.00;3.50;;;;;;;-128.00;-1.00;-1.00;30082;322;7504680;-30
2023/09/25 01:39:24;;;;;;;5.60;5.00;;;;;;;-128.00;-1.00;-1.00;20209;317;7504755;-30
2023/09/25 01:41:52;;;;;;;4.20;3.80;;;;;;;-128.00;-1.00;-1.00;21631;317;7507353;-30
2023/09/25 01:44:19;;;;;;;9.30;5.80;;;;;;;-128.00;-1.00;-1.00;19407;323;7504756;-33
2023/09/25 01:46:45;;;;;;;9.40;6.10;;;;;;;-128.00;-1.00;-1.00;19462;321;7504588;-35
2023/09/25 01:49:11;;;;;;;10.30;6.90;;;;;;;-128.00;-1.00;-1.00;19427;323;7504967;-31
2023/09/25 01:51:37;;;;;;;7.20;6.30;;;;;;;-128.00;-1.00;-1.00;19445;317;7504417;-34
2023/09/25 01:54:04;;;;;;;6.20;5.60;;;;;;;-128.00;-1.00;-1.00;19451;317;7506156;-34
2023/09/25 01:56:30;;;;;;;5.90;5.30;;;;;;;-128.00;-1.00;-1.00;19440;323;7506054;-35
2023/09/25 01:58:56;;;;;;;7.10;4.80;;;;;;;-128.00;-1.00;-1.00;19442;318;7506064;-31
2023/09/25 02:01:22;;;;;;;7.20;5.80;;;;;;;-128.00;-1.00;-1.00;19408;323;7505180;-35
2023/09/25 02:03:49;;;;;;;7.20;5.50;;;;;;;-128.00;-1.00;-1.00;19423;323;7504759;-35
2023/09/25 02:06:15;;;;;;;8.00;6.40;;;;;;;-128.00;-1.00;-1.00;19448;323;7505049;-30
2023/09/25 02:08:41;;;;;;;6.90;5.70;;;;;;;-128.00;-1.00;-1.00;19427;321;7504895;-43
2023/09/25 02:11:07;;;;;;;4.30;3.90;;;;;;;-128.00;-1.00;-1.00;19449;317;7505923;-35
2023/09/25 02:13:33;;;;;;;4.70;4.20;;;;;;;-128.00;-1.00;-1.00;19466;317;7505321;-34
2023/09/25 02:15:59;;;;;;;6.20;5.20;;;;;;;-128.00;-1.00;-1.00;19467;317;7504771;-35
2023/09/25 02:18:25;;;;;;;6.60;4.60;;;;;;;-128.00;-1.00;-1.00;19443;323;7505038;-31
2023/09/25 02:20:51;;;;;;;4.70;3.60;;;;;;;-128.00;-1.00;-1.00;19437;318;7504824;-31
2023/09/25 02:23:19;;;;;;;;;;;;;;;-128.00;-1.00;-1.00;54551;318;7504462;-34
2023/09/25 02:25:47;;;;;;;4.30;3.40;;;;;;;-128.00;-1.00;-1.00;88050;319;3003735;-34
2023/09/25 02:28:15;;;;;;;4.70;3.90;;;;;;;-128.00;-1.00;-1.00;20127;323;7505057;-35
2023/09/25 02:30:43;;;;;;;5.90;4.20;;;;;;;-128.00;-1.00;-1.00;20169;318;7504428;-32
2023/09/25 02:33:09;;;;;;;5.00;3.90;;;;;;;-128.00;-1.00;-1.00;29329;318;7504882;-34
2023/09/25 02:35:36;;;;;;;5.00;3.90;;;;;;;-128.00;-1.00;-1.00;19087;323;7505419;-31
2023/09/25 02:38:02;;;;;;;8.10;5.20;;;;;;;-128.00;-1.00;-1.00;19036;318;7506172;-35
2023/09/25 02:40:28;;;;;;;4.50;4.00;;;;;;;-128.00;-1.00;-1.00;19015;318;7504424;-30
2023/09/25 02:42:54;;;;;;;4.80;4.10;;;;;;;-128.00;-1.00;-1.00;19469;318;7504511;-31
2023/09/25 02:45:20;;;;;;;10.10;5.10;;;;;;;-128.00;-1.00;-1.00;19426;318;7506465;-31
2023/09/25 02:47:46;;;;;;;8.70;5.00;;;;;;;-128.00;-1.00;-1.00;19463;321;7505176;-34
2023/09/25 02:50:12;;;;;;;6.20;5.70;;;;;;;-128.00;-1.00;-1.00;19453;321;7505183;-34
2023/09/25 02:52:39;;;;;;;4.60;4.00;;;;;;;-128.00;-1.00;-1.00;19458;318;7505802;-30
2023/09/25 02:55:05;;;;;;;5.00;3.90;;;;;;;-128.00;-1.00;-1.00;19455;318;7504575;-31
2023/09/25 02:57:32;;;;;;;6.20;4.60;;;;;;;-128.00;-1.00;-1.00;20129;318;7504550;-34
2023/09/25 02:59:59;;;;;;;5.50;4.30;;;;;;;-128.00;-1.00;-1.00;19449;322;7504552;-36
2023/09/25 03:02:26;;;;;;;5.90;5.20;;;;;;;-128.00;-1.00;-1.00;19462;318;7504208;-31
2023/09/25 03:04:51;;;;;;;4.40;3.70;;;;;;;-128.00;-1.00;-1.00;19001;319;7504949;-32
2023/09/25 03:07:17;;;;;;;4.60;3.80;;;;;;;-128.00;-1.00;-1.00;19011;323;7506497;-31
2023/09/25 03:09:43;;;;;;;4.00;3.10;;;;;;;-128.00;-1.00;-1.00;19012;318;7506294;-31
2023/09/25 03:12:09;;;;;;;6.60;5.80;;;;;;;-128.00;-1.00;-1.00;19019;318;7504728;-35
2023/09/25 03:14:35;;;;;;;9.10;5.20;;;;;;;-128.00;-1.00;-1.00;19413;322;7504530;-35
2023/09/25 03:17:01;;;;;;;5.00;3.80;;;;;;;-128.00;-1.00;-1.00;19402;318;7504694;-35
2023/09/25 03:19:31;;;;;;;7.10;4.80;;;;;;;-128.00;-1.00;-1.00;19453;318;7504653;-31
2023/09/25 03:21:56;;;;;;;5.30;4.80;;;;;;;-128.00;-1.00;-1.00;19034;323;7504646;-35
2023/09/25 03:24:22;;;;;;;9.20;5.50;;;;;;;-128.00;-1.00;-1.00;19435;318;7505527;-35
2023/09/25 03:26:51;;;;;;;6.00;4.30;;;;;;;-128.00;-1.00;-1.00;19458;318;7505332;-32
2023/09/25 03:29:17;;;;;;;5.00;4.20;;;;;;;-128.00;-1.00;-1.00;19051;318;7506966;-35
2023/09/25 03:31:43;;;;;;;4.10;3.70;;;;;;;-128.00;-1.00;-1.00;19030;323;7505721;-35
2023/09/25 03:34:08;;;;;;;4.80;3.70;;;;;;;-128.00;-1.00;-1.00;18986;318;7505708;-34
2023/09/25 03:36:35;;;;;;;6.50;4.90;;;;;;;-128.00;-1.00;-1.00;19434;318;7504974;-34
2023/09/25 03:39:01;;;;;;;5.80;4.50;;;;;;;-128.00;-1.00;-1.00;19431;323;7505480;-31
2023/09/25 03:41:27;;;;;;;4.10;3.60;;;;;;;-128.00;-1.00;-1.00;19419;318;7506393;-34
2023/09/25 03:43:53;;;;;;;7.80;5.10;;;;;;;-128.00;-1.00;-1.00;19429;318;7504893;-31
2023/09/25 03:46:19;;;;;;;5.90;4.70;;;;;;;-128.00;-1.00;-1.00;21586;318;7505713;-34
2023/09/25 03:48:46;;;;;;;5.00;4.60;;;;;;;-128.00;-1.00;-1.00;19447;318;7506463;-34
2023/09/25 03:51:12;;;;;;;8.00;5.30;;;;;;;-128.00;-1.00;-1.00;19446;323;7504930;-30
2023/09/25 03:53:38;;;;;;;7.00;4.80;;;;;;;-128.00;-1.00;-1.00;19441;323;7505032;-31
2023/09/25 03:56:04;;;;;;;4.10;3.70;;;;;;;-128.00;-1.00;-1.00;19477;323;7508075;-34
2023/09/25 03:58:30;;;;;;;6.10;4.50;;;;;;;-128.00;-1.00;-1.00;19435;318;7504495;-31
2023/09/25 04:00:57;;;;;;;5.60;5.00;;;;;;;-128.00;-1.00;-1.00;19421;318;7504699;-35
2023/09/25 04:03:23;;;;;;;7.00;4.60;;;;;;;-128.00;-1.00;-1.00;19029;317;7505293;-32
2023/09/25 04:05:48;;;;;;;5.50;5.00;;;;;;;-128.00;-1.00;-1.00;19022;321;7505187;-32
2023/09/25 04:08:14;;;;;;;5.90;4.90;;;;;;;-128.00;-1.00;-1.00;19012;323;7504801;-31
2023/09/25 04:10:41;;;;;;;6.00;4.50;;;;;;;-128.00;-1.00;-1.00;20134;320;7504743;-31
2023/09/25 04:13:11;;;;;;;6.50;4.60;;;;;;;-128.00;-1.00;-1.00;19430;323;7506681;-34
2023/09/25 04:15:38;;;;;;;7.60;5.00;;;;;;;-128.00;-1.00;-1.00;21616;318;7504634;-35
2023/09/25 04:18:08;;;;;;;6.60;5.20;;;;;;;-128.00;-1.00;-1.00;19405;323;7504453;-31
2023/09/25 04:20:33;;;;;;;7.50;4.80;;;;;;;-128.00;-1.00;-1.00;19050;323;7505055;-31
2023/09/25 04:22:59;;;;;;;11.10;4.60;;;;;;;-128.00;-1.00;-1.00;19012;321;7504985;-35
2023/09/25 04:25:27;;;;;;;5.60;3.00;;;;;;;-128.00;-1.00;-1.00;19025;318;7505558;-35
2023/09/25 04:27:54;;;;;;;4.30;3.80;;;;;;;-128.00;-1.00;-1.00;19012;317;7505217;-31
2023/09/25 04:30:20;;;;;;;9.80;4.30;;;;;;;-128.00;-1.00;-1.00;19036;323;7504486;-35
2023/09/25 04:32:46;;;;;;;3.70;3.40;;;;;;;-128.00;-1.00;-1.00;24436;323;7505175;-34
2023/09/25 04:35:13;;;;;;;5.90;3.40;;;;;;;-128.00;-1.00;-1.00;19064;323;7504690;-34
2023/09/25 04:37:39;;;;;;;3.80;3.40;;;;;;;-128.00;-1.00;-1.00;19026;318;7505392;-30
2023/09/25 04:42:50;;;;;;;5.70;4.50;;;;;;;-128.00;-1.00;-1.00;19031;321;7505069;-30
2023/09/25 04:45:18;;;;;;;4.20;3.80;;;;;;;-128.00;-1.00;-1.00;19025;318;7506281;-31
2023/09/25 04:47:47;;;;;;;4.30;3.90;;;;;;;-128.00;-1.00;-1.00;19041;318;7504662;-30
2023/09/25 04:50:13;;;;;;;5.90;2.40;;;;;;;-128.00;-1.00;-1.00;19042;318;7504835;-30
2023/09/25 04:52:44;;;;;;;2.70;2.30;;;;;;;-128.00;-1.00;-1.00;19033;318;7505293;-31
2023/09/25 04:55:12;;;;;;;4.30;3.90;;;;;;;-128.00;-1.00;-1.00;20141;318;7504534;-31
2023/09/25 04:57:39;;;;;;;2.80;2.60;;;;;;;-128.00;-1.00;-1.00;18983;323;7504719;-31
2023/09/25 05:02:46;;;;;;;4.70;4.10;;;;;;;-128.00;-1.00;-1.00;27627;322;7504653;-30
2023/09/25 05:05:12;;;;;;;5.80;4.30;;;;;;;-128.00;-1.00;-1.00;28444;318;7504450;-30
2023/09/25 05:07:41;;;;;;;9.40;4.30;;;;;;;-128.00;-1.00;-1.00;83450;318;7504122;-35
2023/09/25 05:10:10;;;;;;;5.80;3.90;;;;;;;-128.00;-1.00;-1.00;79246;318;7504968;-32
2023/09/25 05:12:40;;;;;;;5.40;4.30;;;;;;;-128.00;-1.00;-1.00;20155;318;7504756;-30
2023/09/25 05:15:10;;;;;;;3.50;3.20;;;;;;;-128.00;-1.00;-1.00;19062;322;7506854;-30
2023/09/25 05:17:37;;;;;;;7.30;4.70;;;;;;;-128.00;-1.00;-1.00;19013;319;7504878;-34
2023/09/25 05:20:15;;;;;;;7.20;4.50;;;;;;;-128.00;-1.00;-1.00;21564;319;7504645;-34
2023/09/25 05:22:41;;;;;;;9.70;5.30;;;;;;;-128.00;-1.00;-1.00;24114;318;7504941;-31
2023/09/25 05:25:09;;;;;;;5.40;4.70;;;;;;;-128.00;-1.00;-1.00;33048;319;7504241;-30
2023/09/25 05:27:36;;;;;;;5.20;3.50;;;;;;;-128.00;-1.00;-1.00;19458;318;7505435;-34
2023/09/25 05:30:09;;;;;;;4.20;3.90;;;;;;;-128.00;-1.00;-1.00;19070;321;7505999;-35
2023/09/25 05:32:39;;;;;;;3.50;3.10;;;;;;;-128.00;-1.00;-1.00;19037;323;7504945;-35
2023/09/25 05:35:05;;;;;;;6.10;4.40;;;;;;;-128.00;-1.00;-1.00;19012;323;7504858;-35
2023/09/25 05:37:32;;;;;;;4.60;3.30;;;;;;;-128.00;-1.00;-1.00;19014;321;7504792;-31
2023/09/25 05:39:58;;;;;;;7.10;4.00;;;;;;;-128.00;-1.00;-1.00;19010;318;7504761;-31
2023/09/25 05:42:24;;;;;;;7.80;2.50;;;;;;;-128.00;-1.00;-1.00;19010;318;7504617;-31
2023/09/25 05:44:50;;;;;;;9.50;3.70;;;;;;;-128.00;-1.00;-1.00;19023;318;7504513;-34
2023/09/25 05:47:17;;;;;;;4.10;3.70;;;;;;;-128.00;-1.00;-1.00;18979;318;7506642;-31
2023/09/25 05:49:43;;;;;;;6.80;3.70;;;;;;;-128.00;-1.00;-1.00;19440;318;7505109;-34
2023/09/25 05:52:09;;;;;;;4.90;4.10;;;;;;;-128.00;-1.00;-1.00;19408;319;7504757;-34
2023/09/25 05:54:35;;;;;;;9.60;4.80;;;;;;;-128.00;-1.00;-1.00;19401;323;7505460;-30
2023/09/25 05:57:05;;;;;;;6.50;4.90;;;;;;;-128.00;-1.00;-1.00;19454;318;7505770;-34
2023/09/25 05:59:34;;;;;;;3.90;3.50;;;;;;;-128.00;-1.00;-1.00;19015;318;7505182;-35
2023/09/25 06:02:01;;;;;;;5.00;3.70;;;;;;;-128.00;-1.00;-1.00;19033;322;7505010;-37
2023/09/25 06:04:27;;;;;;;4.70;4.00;;;;;;;-128.00;-1.00;-1.00;19006;323;7505069;-31
2023/09/25 06:06:53;;;;;;;4.90;3.20;;;;;;;-128.00;-1.00;-1.00;19002;318;7506136;-35
2023/09/25 06:09:19;;;;;;;12.40;2.90;;;;;;;-128.00;-1.00;-1.00;19023;323;7504722;-35
2023/09/25 06:11:46;;;;;;;5.90;3.30;;;;;;;-128.00;-1.00;-1.00;20181;321;7504934;-33
2023/09/25 06:14:13;;;;;;;4.30;3.70;;;;;;;-128.00;-1.00;-1.00;20243;318;7505036;-31
2023/09/25 06:16:41;;;;;;;4.70;3.70;;;;;;;-128.00;-1.00;-1.00;20880;318;7504455;-35
2023/09/25 06:19:08;;;;;;;5.20;3.90;;;;;;;-128.00;-1.00;-1.00;19400;319;7505144;-34
2023/09/25 06:21:34;;;;;;;4.00;3.60;;;;;;;-128.00;-1.00;-1.00;19407;319;7505579;-32
2023/09/25 06:24:01;;;;;;;5.50;4.30;;;;;;;-128.00;-1.00;-1.00;19395;319;7505239;-35
2023/09/25 06:26:29;;;;;;;7.40;4.30;;;;;;;-128.00;-1.00;-1.00;20151;322;7504616;-35
2023/09/25 06:28:55;;;;;;;4.50;4.00;;;;;;;-128.00;-1.00;-1.00;19423;318;7504797;-31
2023/09/25 06:31:22;;;;;;;10.20;3.60;;;;;;;-128.00;-1.00;-1.00;19431;323;7504693;-31
2023/09/25 06:33:48;;;;;;;4.60;3.70;;;;;;;-128.00;-1.00;-1.00;19004;323;7505340;-35
2023/09/25 06:36:14;;;;;;;9.70;3.90;;;;;;;-128.00;-1.00;-1.00;19021;321;7504507;-35
2023/09/25 06:38:40;;;;;;;4.90;3.50;;;;;;;-128.00;-1.00;-1.00;19437;322;7504235;-31
2023/09/25 06:41:10;;;;;;;7.50;4.10;;;;;;;-128.00;-1.00;-1.00;19431;318;7505491;-35
2023/09/25 06:43:37;;;;;;;5.90;3.90;;;;;;;-128.00;-1.00;-1.00;19040;318;7505127;-30
2023/09/25 06:46:02;;;;;;;5.90;3.90;;;;;;;-128.00;-1.00;-1.00;19041;323;7506185;-35
2023/09/25 06:48:28;;;;;;;7.90;3.30;;;;;;;-128.00;-1.00;-1.00;19020;322;7505341;-31
2023/09/25 06:50:54;;;;;;;3.70;2.80;;;;;;;-128.00;-1.00;-1.00;19418;318;7504986;-34
2023/09/25 06:53:20;;;;;;;3.70;3.20;;;;;;;-128.00;-1.00;-1.00;19430;318;7505069;-34
2023/09/25 06:55:47;;;;;;;8.60;3.20;;;;;;;-128.00;-1.00;-1.00;19447;318;7505482;-33
2023/09/25 06:58:13;;;;;;;5.90;3.30;;;;;;;-128.00;-1.00;-1.00;19441;318;7506457;-34
2023/09/25 07:00:39;;;;;;;3.90;3.20;;;;;;;-128.00;-1.00;-1.00;19432;323;7506275;-35
2023/09/25 07:03:06;;;;;;;3.80;3.10;;;;;;;-128.00;-1.00;-1.00;19447;323;7505698;-32
2023/09/25 07:05:32;;;;;;;3.50;2.90;;;;;;;-128.00;-1.00;-1.00;19432;318;7506833;-31
2023/09/25 07:07:59;;;;;;;3.10;2.50;;;;;;;-128.00;-1.00;-1.00;19420;323;7504644;-31
2023/09/25 07:10:25;;;;;;;11.00;3.00;;;;;;;-128.00;-1.00;-1.00;19027;322;7504789;-35
2023/09/25 07:12:52;;;;;;;5.10;2.90;;;;;;;-128.00;-1.00;-1.00;19453;318;7505770;-34
2023/09/25 07:15:18;;;;;;;4.60;3.40;;;;;;;-128.00;-1.00;-1.00;19020;324;7506858;-34
2023/09/25 07:17:44;;;;;;;3.10;2.90;;;;;;;-128.00;-1.00;-1.00;19037;318;7505339;-35
2023/09/25 07:20:10;;;;;;;3.80;3.10;;;;;;;-128.00;-1.00;-1.00;19038;318;7506586;-35
2023/09/25 07:22:36;;;;;;;3.70;2.90;;;;;;;-128.00;-1.00;-1.00;19027;318;7504969;-32
2023/09/25 07:25:02;;;;;;;3.30;3.00;;;;;;;-128.00;-1.00;-1.00;19010;323;7504903;-35
2023/09/25 07:27:39;;;;;;;3.20;2.80;;;;;;;-128.00;-1.00;-1.00;19012;318;7504868;-31
2023/09/25 07:30:07;;;;;;;3.40;2.70;;;;;;;-128.00;-1.00;-1.00;19470;323;7505015;-35
2023/09/25 07:32:33;;;;;;;8.00;3.00;;;;;;;-128.00;-1.00;-1.00;19025;323;7507320;-35
2023/09/25 07:35:02;;;;;;;4.50;3.40;;;;;;;-128.00;-1.00;-1.00;19424;318;7505885;-31
2023/09/25 07:37:27;;;;;;;2.70;2.40;;;;;;;-128.00;-1.00;-1.00;19006;323;7506203;-31
2023/09/25 07:39:54;;;;;;;4.50;3.50;;;;;;;-128.00;-1.00;-1.00;19417;323;7504922;-31
2023/09/25 07:42:21;;;;;;;5.20;2.50;;;;;;;-128.00;-1.00;-1.00;18999;318;7505536;-35
2023/09/25 07:44:48;;;;;;;2.70;2.50;;;;;;;-128.00;-1.00;-1.00;19013;321;7504717;-35
2023/09/25 07:47:14;;;;;;;3.00;1.90;;;;;;;-128.00;-1.00;-1.00;19005;318;7504965;-31
2023/09/25 07:49:45;;;;;;;5.00;3.20;;;;;;;-128.00;-1.00;-1.00;19026;318;7504921;-35
2023/09/25 07:52:15;;;;;;;10.10;2.70;;;;;;;-128.00;-1.00;-1.00;19020;318;7506016;-31
2023/09/25 07:54:44;;;;;;;11.40;3.50;;;;;;;-128.00;-1.00;-1.00;19011;323;7506246;-36
2023/09/25 07:57:15;;;;;;;3.80;2.50;;;;;;;-128.00;-1.00;-1.00;19002;320;7505047;-36
2023/09/25 07:59:41;;;;;;;2.80;2.30;;;;;;;-128.00;-1.00;-1.00;19030;322;7504763;-36
2023/09/25 08:02:08;;;;;;;9.10;3.10;;;;;;;-128.00;-1.00;-1.00;19035;318;7504772;-32
2023/09/25 08:04:35;;;;;;;3.30;3.00;;;;;;;-128.00;-1.00;-1.00;19004;319;7505014;-32
2023/09/25 08:07:03;;;;;;;17.20;3.00;;;;;;;-128.00;-1.00;-1.00;19008;323;7505217;-32
2023/09/25 08:09:29;;;;;;;2.70;2.20;;;;;;;-128.00;-1.00;-1.00;19022;318;7505021;-32
2023/09/25 08:11:55;;;;;;;3.00;2.00;;;;;;;-128.00;-1.00;-1.00;19009;323;7504870;-32
2023/09/25 08:14:21;;;;;;;3.10;2.40;;;;;;;-128.00;-1.00;-1.00;19008;318;7504697;-31
2023/09/25 08:16:47;;;;;;;3.70;2.90;;;;;;;-128.00;-1.00;-1.00;19026;318;7505084;-31
2023/09/25 08:19:17;;;;;;;6.80;2.40;;;;;;;-128.00;-1.00;-1.00;19466;318;7504809;-32
2023/09/25 08:21:44;;;;;;;3.30;2.50;;;;;;;-128.00;-1.00;-1.00;19037;323;7504594;-36
2023/09/25 08:24:09;;;;;;;8.50;2.20;;;;;;;-128.00;-1.00;-1.00;19002;323;7506177;-35
2023/09/25 08:26:35;;;;;;;2.70;2.50;;;;;;;-128.00;-1.00;-1.00;19006;323;7505026;-36
2023/09/25 08:29:05;;;;;;;5.30;2.20;;;;;;;-128.00;-1.00;-1.00;19012;318;7504862;-36
2023/09/25 08:31:31;;;;;;;2.00;1.40;;;;;;;-128.00;-1.00;-1.00;19048;318;7505305;-31
2023/09/25 08:33:57;;;;;;;2.00;1.70;;;;;;;-128.00;-1.00;-1.00;19011;318;7504804;-36
2023/09/25 08:36:23;;;;;;;1.80;1.60;;;;;;;-128.00;-1.00;-1.00;18995;323;7505206;-36
2023/09/25 08:38:49;;;;;;;3.30;2.10;;;;;;;-128.00;-1.00;-1.00;19029;318;7504905;-35
2023/09/25 08:41:15;;;;;;;5.80;2.00;;;;;;;-128.00;-1.00;-1.00;19430;318;7504584;-31
2023/09/25 08:43:41;;;;;;;2.50;1.70;;;;;;;-128.00;-1.00;-1.00;19453;318;7506258;-35
2023/09/25 08:46:07;;;;;;;2.20;2.00;;;;;;;-128.00;-1.00;-1.00;19387;323;7504655;-36
2023/09/25 08:48:33;;;;;;;3.60;2.40;;;;;;;-128.00;-1.00;-1.00;19423;323;7505545;-31
2023/09/25 08:51:00;;;;;;;2.50;2.10;;;;;;;-128.00;-1.00;-1.00;19436;318;7504886;-32
2023/09/25 08:53:26;;;;;;;2.50;1.50;;;;;;;-128.00;-1.00;-1.00;19423;318;7504790;-36
2023/09/25 08:55:52;;;;;;;2.20;1.50;;;;;;;-128.00;-1.00;-1.00;18972;319;7504769;-32
2023/09/25 08:58:18;;;;;;;1.90;1.70;;;;;;;-128.00;-1.00;-1.00;19049;318;7504650;-31
2023/09/25 09:00:44;;;;;;;2.40;1.70;;;;;;;-128.00;-1.00;-1.00;19004;318;7504573;-35
2023/09/25 09:03:09;;;;;;;1.70;1.60;;;;;;;-128.00;-1.00;-1.00;19034;322;7506514;-35
2023/09/25 09:05:36;;;;;;;1.80;1.30;;;;;;;-128.00;-1.00;-1.00;19051;322;7505165;-35
2023/09/25 09:08:05;;;;;;;1.60;1.40;;;;;;;-128.00;-1.00;-1.00;19016;318;7506454;-38
2023/09/25 09:10:35;;;;;;;2.40;1.60;;;;;;;-128.00;-1.00;-1.00;19044;318;7504846;-36
2023/09/25 09:13:04;;;;;;;6.30;1.40;;;;;;;-128.00;-1.00;-1.00;18994;318;7504838;-36
2023/09/25 09:15:30;;;;;;;1.20;0.90;;;;;;;-128.00;-1.00;-1.00;19020;322;7504623;-32
2023/09/25 09:17:56;;;;;;;16.80;1.10;;;;;;;-128.00;-1.00;-1.00;19033;323;7504820;-32
2023/09/25 09:20:33;;;;;;;4.10;1.60;;;;;;;-128.00;-1.00;-1.00;18676;317;7505174;-38
2023/09/25 09:22:59;;;;;;;2.10;1.50;;;;;;;-128.00;-1.00;-1.00;19032;318;7505042;-32
2023/09/25 09:25:25;;;;;;;4.90;1.40;;;;;;;-128.00;-1.00;-1.00;19004;320;7504632;-31
2023/09/25 09:27:50;;;;;;;2.20;1.60;;;;;;;-128.00;-1.00;-1.00;19006;323;7504913;-31
2023/09/25 09:30:21;;;;;;;0.90;0.80;;;;;;;-128.00;-1.00;-1.00;19033;321;7504789;-35
2023/09/25 09:32:50;;;;;;;0.40;0.40;;;;;;;-128.00;-1.00;-1.00;19028;318;7506262;-31
2023/09/25 09:35:24;;;;;;;2.20;1.80;;;;;;;-128.00;-1.00;-1.00;19027;318;7505044;-36
2023/09/25 09:37:52;;;;;;;3.10;1.80;;;;;;;-128.00;-1.00;-1.00;19009;318;7505709;-32
2023/09/25 09:40:19;;;;;;;2.40;1.30;;;;;;;-128.00;-1.00;-1.00;18988;319;7505251;-36
2023/09/25 09:42:45;;;;;;;4.70;1.70;;;;;;;-128.00;-1.00;-1.00;19009;318;7504645;-32
2023/09/25 09:45:11;;;;;;;2.80;1.70;;;;;;;-128.00;-1.00;-1.00;19026;318;7504548;-35
2023/09/25 09:47:42;;;;;;;3.40;1.10;;;;;;;-128.00;-1.00;-1.00;19008;318;7504931;-31
2023/09/25 09:50:09;;;;;;;1.20;1.00;;;;;;;-128.00;-1.00;-1.00;19009;318;7504688;-33
2023/09/25 09:52:35;;;;;;;1.20;0.90;;;;;;;-128.00;-1.00;-1.00;19022;318;7505643;-31
2023/09/25 09:55:03;;;;;;;3.40;1.30;;;;;;;-128.00;-1.00;-1.00;19011;323;7505524;-32
2023/09/25 09:57:28;;;;;;;1.80;0.80;;;;;;;-128.00;-1.00;-1.00;18981;319;7506104;-36
2023/09/25 09:59:54;;;;;;;1.30;1.00;;;;;;;-128.00;-1.00;-1.00;19020;317;7506771;-32
2023/09/25 10:02:20;;;;;;;2.10;0.90;;;;;;;-128.00;-1.00;-1.00;19024;323;7504753;-32
2023/09/25 10:04:45;;;;;;;1.40;0.70;;;;;;;-128.00;-1.00;-1.00;19041;318;7504939;-32
2023/09/25 10:07:12;;;;;;;7.30;1.20;;;;;;;-128.00;-1.00;-1.00;19045;318;7505012;-32
2023/09/25 10:09:38;;;;;;;4.90;1.40;;;;;;;-128.00;-1.00;-1.00;19013;318;7504850;-32
2023/09/25 10:12:05;;;;;;;2.10;1.30;;;;;;;-128.00;-1.00;-1.00;19447;318;7506509;-36
2023/09/25 10:14:37;;;;;;;1.40;1.00;;;;;;;-128.00;-1.00;-1.00;19028;318;7504501;-36
2023/09/25 10:17:04;;;;;;;2.60;0.80;;;;;;;-128.00;-1.00;-1.00;19005;323;7506263;-36
2023/09/25 10:19:47;;;;;;;2.80;1.10;;;;;;;-128.00;-1.00;-1.00;19024;321;7505204;-32
2023/09/25 10:22:26;;;;;;;1.40;0.90;;;;;;;-128.00;-1.00;-1.00;19052;321;7504879;-35
2023/09/25 10:25:10;;;;;;;1.80;1.00;;;;;;;-128.00;-1.00;-1.00;19073;321;7506089;-32
2023/09/25 10:27:36;;;;;;;1.90;1.20;;;;;;;-128.00;-1.00;-1.00;19075;316;7504945;-31
2023/09/25 10:30:08;;;;;;;7.30;1.80;;;;;;;-128.00;-1.00;-1.00;19054;316;7504926;-32
2023/09/25 10:32:36;;;;;;;1.90;1.50;;;;;;;-128.00;-1.00;-1.00;19062;321;7505152;-36
2023/09/25 10:35:26;;;;;;;4.50;1.70;;;;;;;-128.00;-1.00;-1.00;19006;316;7504335;-32
2023/09/25 10:38:17;;;;;;;1.00;0.80;;;;;;;-128.00;-1.00;-1.00;19064;317;7505203;-36
2023/09/25 10:40:44;;;;;;;2.00;1.10;;;;;;;-128.00;-1.00;-1.00;19061;316;7504964;-35
2023/09/25 10:43:10;;;;;;;1.20;0.70;;;;;;;-128.00;-1.00;-1.00;19072;321;7505172;-35
2023/09/25 10:45:37;;;;;;;2.80;1.30;;;;;;;-128.00;-1.00;-1.00;19093;317;7505742;-35
2023/09/25 10:48:03;;;;;;;1.80;1.00;;;;;;;-128.00;-1.00;-1.00;19022;317;7504455;-35
2023/09/25 10:50:28;;;;;;;5.20;1.10;;;;;;;-128.00;-1.00;-1.00;19000;320;7504894;-31
2023/09/25 10:52:55;;;;;;;1.60;0.90;;;;;;;-128.00;-1.00;-1.00;19069;322;7506237;-36
2023/09/25 10:55:20;;;;;;;1.60;1.20;;;;;;;-128.00;-1.00;-1.00;19059;317;7505433;-32
2023/09/25 10:57:47;;;;;;;14.00;1.10;;;;;;;-128.00;-1.00;-1.00;19492;316;7504316;-35
2023/09/25 11:00:17;;;;;;;1.80;1.00;;;;;;;-128.00;-1.00;-1.00;19466;316;7504906;-36
2023/09/25 11:02:42;;;;;;;8.50;0.80;;;;;;;-128.00;-1.00;-1.00;19049;317;7504589;-36
2023/09/25 11:05:09;;;;;;;1.80;0.80;;;;;;;-128.00;-1.00;-1.00;19048;317;7505993;-34
2023/09/25 11:07:38;;;;;;;6.90;2.60;;;;;;;-128.00;-1.00;-1.00;19048;316;7505476;-32
2023/09/25 11:10:04;;;;;;;2.30;1.10;;;;;;;-128.00;-1.00;-1.00;19074;317;7505399;-35
2023/09/25 11:12:30;;;;;;;1.10;1.00;;;;;;;-128.00;-1.00;-1.00;19056;317;7506476;-32
2023/09/25 11:14:57;;;;;;;1.80;1.00;;;;;;;-128.00;-1.00;-1.00;19076;316;7505603;-36
2023/09/25 11:17:24;;;;;;;1.70;1.30;;;;;;;-128.00;-1.00;-1.00;19038;318;7504667;-32
2023/09/25 11:19:53;;;;;;;0.70;0.70;;;;;;;-128.00;-1.00;-1.00;19044;317;7504800;-32
2023/09/25 11:22:24;;;;;;;1.40;1.10;;;;;;;-128.00;-1.00;-1.00;19088;316;7505697;-36
2023/09/25 11:24:58;;;;;;;;;;;;;;;-128.00;-1.00;-1.00;19044;317;7506002;-35
2023/09/25 11:27:23;;;;;;;3.50;0.80;;;;;;;-128.00;-1.00;-1.00;19025;317;7504490;-36
2023/09/25 11:29:49;;;;;;;1.40;0.80;;;;;;;-128.00;-1.00;-1.00;19065;317;7506210;-32
2023/09/25 11:32:16;;;;;;;2.20;0.80;;;;;;;-128.00;-1.00;-1.00;19061;316;7505182;-35
2023/09/25 11:34:43;;;;;;;2.10;1.20;;;;;;;-128.00;-1.00;-1.00;19036;322;7504522;-31
2023/09/25 11:37:21;;;;;;;1.10;0.90;;;;;;;-128.00;-1.00;-1.00;19063;316;7505371;-36
2023/09/25 11:39:47;;;;;;;1.50;0.80;;;;;;;-128.00;-1.00;-1.00;19015;317;7505449;-31
2023/09/25 11:42:12;;;;;;;1.00;0.70;;;;;;;-128.00;-1.00;-1.00;19056;317;7504522;-31
2023/09/25 11:44:38;;;;;;;2.60;0.80;;;;;;;-128.00;-1.00;-1.00;19469;321;7504671;-32
2023/09/25 11:47:08;;;;;;;1.30;1.00;;;;;;;-128.00;-1.00;-1.00;19486;316;7506463;-35
2023/09/25 11:49:33;;;;;;;1.00;0.70;;;;;;;-128.00;-1.00;-1.00;19085;322;7505276;-32
2023/09/25 11:51:59;;;;;;;1.00;0.70;;;;;;;-128.00;-1.00;-1.00;19065;316;7504750;-35
2023/09/25 11:54:25;;;;;;;3.10;1.30;;;;;;;-128.00;-1.00;-1.00;19487;317;7506336;-35
2023/09/25 11:56:51;;;;;;;2.30;0.90;;;;;;;-128.00;-1.00;-1.00;19505;316;7505181;-36
2023/09/25 11:59:17;;;;;;;2.50;1.40;;;;;;;-128.00;-1.00;-1.00;19447;322;7505138;-32
2023/09/25 12:01:45;;;;;;;5.40;1.20;;;;;;;-128.00;-1.00;-1.00;19444;321;7504685;-32
2023/09/25 12:04:12;;;;;;;2.10;1.50;;;;;;;-128.00;-1.00;-1.00;19039;317;7505013;-37
2023/09/25 12:06:39;;;;;;;1.80;1.10;;;;;;;-128.00;-1.00;-1.00;19075;316;7504880;-37
2023/09/25 12:09:11;;;;;;;1.50;0.90;;;;;;;-128.00;-1.00;-1.00;19048;316;7506859;-32
2023/09/25 12:11:38;;;;;;;2.80;0.70;;;;;;;-128.00;-1.00;-1.00;19055;316;7505470;-36
2023/09/25 12:14:04;;;;;;;4.00;1.10;;;;;;;-128.00;-1.00;-1.00;19029;317;7504413;-36
2023/09/25 12:16:30;;;;;;;1.00;0.80;;;;;;;-128.00;-1.00;-1.00;19026;317;7504691;-32
2023/09/25 12:18:56;;;;;;;1.20;0.90;;;;;;;-128.00;-1.00;-1.00;19119;317;7504360;-36